AFR1519 DTTA-DTTJ
Flight info
| Callsign | AFR1519 |
|---|---|
| Flight time | 0h 40m |
| Altitude | 23000 |
| Route | GIBLI2A GIBLI A411 MON UA411 ELJEM A411 SFX UA411 JBA |
| Aircraft | A343/H-SDE2E3FGHIJ4J5M1RWXY/LB1D1 |
Departure
| Time | 2026-05-07 23:56 |
|---|---|
| Airport | Tunis Carthage International Airport (DTTA) |
Arrival
| Time | 2026-05-08 00:36 |
|---|---|
| Airport | Djerba Zarzis International Airport (DTTJ) |
| Time | Latitude | Longitude | Altitude | Speed | Heading |
|---|---|---|---|---|---|
| 2026-05-07 23:24 | 36.83966 | 10.21979 | 34 ft | 0 kts | 6° |
| 2026-05-07 23:50 | 36.83968 | 10.21979 | 34 ft | 0 kts | 5° |
| 2026-05-07 23:50 | 36.83989 | 10.21982 | 34 ft | 13 kts | 6° |
| 2026-05-07 23:50 | 36.84027 | 10.21980 | 34 ft | 13 kts | 352° |
| 2026-05-07 23:50 | 36.84037 | 10.21952 | 34 ft | 4 kts | 256° |
| 2026-05-07 23:51 | 36.84016 | 10.21915 | 34 ft | 0 kts | 216° |
| 2026-05-07 23:51 | 36.83988 | 10.21907 | 34 ft | 9 kts | 182° |
| 2026-05-07 23:51 | 36.83924 | 10.21943 | 33 ft | 11 kts | 151° |
| 2026-05-07 23:51 | 36.83904 | 10.21963 | 34 ft | 8 kts | 134° |
| 2026-05-07 23:52 | 36.83877 | 10.22058 | 34 ft | 17 kts | 100° |
| 2026-05-07 23:52 | 36.83874 | 10.22211 | 34 ft | 11 kts | 75° |
| 2026-05-07 23:52 | 36.83876 | 10.22216 | 34 ft | 0 kts | 73° |
| 2026-05-07 23:54 | 36.83876 | 10.22217 | 34 ft | 2 kts | 73° |
| 2026-05-07 23:54 | 36.83906 | 10.22293 | 35 ft | 14 kts | 55° |
| 2026-05-07 23:54 | 36.83971 | 10.22387 | 35 ft | 12 kts | 38° |
| 2026-05-07 23:54 | 36.84016 | 10.22403 | 35 ft | 4 kts | 13° |
| 2026-05-07 23:55 | 36.84070 | 10.22417 | 35 ft | 31 kts | 12° |
| 2026-05-07 23:55 | 36.84554 | 10.22542 | 32 ft | 112 kts | 13° |
| 2026-05-07 23:55 | 36.85570 | 10.22824 | 34 ft | 184 kts | 12° |
| 2026-05-07 23:56 | 36.87007 | 10.23230 | 228 ft | 233 kts | 13° |
| 2026-05-07 23:56 | 36.88716 | 10.23718 | 813 ft | 270 kts | 14° |
| 2026-05-07 23:56 | 36.90638 | 10.24284 | 1504 ft | 283 kts | 15° |
| 2026-05-07 23:56 | 36.92423 | 10.24820 | 2045 ft | 246 kts | 15° |
| 2026-05-07 23:57 | 36.93986 | 10.25284 | 2356 ft | 217 kts | 14° |
| 2026-05-07 23:57 | 36.95387 | 10.25697 | 2492 ft | 198 kts | 14° |
| 2026-05-07 23:57 | 36.96682 | 10.26075 | 2473 ft | 185 kts | 14° |
| 2026-05-07 23:57 | 36.97902 | 10.26431 | 2423 ft | 178 kts | 14° |
| 2026-05-07 23:58 | 36.99065 | 10.26967 | 2404 ft | 179 kts | 36° |
| 2026-05-07 23:58 | 36.99845 | 10.28159 | 2401 ft | 190 kts | 77° |
| 2026-05-07 23:58 | 36.99701 | 10.29891 | 2657 ft | 220 kts | 122° |
| 2026-05-07 23:58 | 36.98511 | 10.31170 | 3264 ft | 237 kts | 163° |
| 2026-05-07 23:59 | 36.96868 | 10.31497 | 4250 ft | 243 kts | 179° |
| 2026-05-07 23:59 | 36.95168 | 10.31656 | 5364 ft | 247 kts | 181° |
| 2026-05-07 23:59 | 36.93435 | 10.31896 | 6414 ft | 255 kts | 180° |
| 2026-05-07 23:59 | 36.91675 | 10.32219 | 7393 ft | 263 kts | 178° |
| 2026-05-08 00:00 | 36.89850 | 10.32610 | 8407 ft | 269 kts | 177° |
| 2026-05-08 00:00 | 36.87987 | 10.33040 | 9418 ft | 275 kts | 176° |
| 2026-05-08 00:00 | 36.86082 | 10.33494 | 10299 ft | 284 kts | 176° |
| 2026-05-08 00:00 | 36.84067 | 10.33976 | 10757 ft | 307 kts | 176° |
| 2026-05-08 00:01 | 36.81896 | 10.34499 | 11134 ft | 328 kts | 175° |
| 2026-05-08 00:01 | 36.79607 | 10.35062 | 11732 ft | 341 kts | 175° |
| 2026-05-08 00:01 | 36.77256 | 10.35648 | 12483 ft | 348 kts | 175° |
| 2026-05-08 00:01 | 36.74863 | 10.36243 | 13297 ft | 353 kts | 176° |
| 2026-05-08 00:02 | 36.72438 | 10.36845 | 14134 ft | 358 kts | 176° |
| 2026-05-08 00:02 | 36.69981 | 10.37453 | 14895 ft | 362 kts | 176° |
| 2026-05-08 00:02 | 36.67493 | 10.38066 | 15649 ft | 367 kts | 176° |
| 2026-05-08 00:02 | 36.64974 | 10.38686 | 16441 ft | 371 kts | 176° |
| 2026-05-08 00:03 | 36.62424 | 10.39314 | 17233 ft | 376 kts | 176° |
| 2026-05-08 00:03 | 36.60718 | 10.39734 | 17720 ft | 379 kts | 176° |
| 2026-05-08 00:03 | 36.58116 | 10.40374 | 18439 ft | 384 kts | 176° |
| 2026-05-08 00:03 | 36.55481 | 10.41022 | 19096 ft | 388 kts | 176° |
| 2026-05-08 00:04 | 36.52819 | 10.41645 | 19711 ft | 392 kts | 176° |
| 2026-05-08 00:04 | 36.50114 | 10.42213 | 20394 ft | 394 kts | 178° |
| 2026-05-08 00:04 | 36.47396 | 10.42724 | 21088 ft | 397 kts | 178° |
| 2026-05-08 00:04 | 36.44652 | 10.43216 | 21750 ft | 400 kts | 178° |
| 2026-05-08 00:05 | 36.41891 | 10.43706 | 22399 ft | 403 kts | 178° |
| 2026-05-08 00:05 | 36.39093 | 10.44209 | 22818 ft | 408 kts | 178° |
| 2026-05-08 00:05 | 36.36263 | 10.44724 | 22930 ft | 418 kts | 178° |
| 2026-05-08 00:05 | 36.33344 | 10.45258 | 22924 ft | 428 kts | 178° |
| 2026-05-08 00:06 | 36.30394 | 10.45808 | 22920 ft | 430 kts | 177° |
| 2026-05-08 00:06 | 36.27437 | 10.46367 | 22910 ft | 430 kts | 178° |
| 2026-05-08 00:06 | 36.24481 | 10.46927 | 22916 ft | 430 kts | 178° |
| 2026-05-08 00:06 | 36.21523 | 10.47486 | 22917 ft | 430 kts | 178° |
| 2026-05-08 00:07 | 36.18566 | 10.48043 | 22912 ft | 430 kts | 178° |
| 2026-05-08 00:07 | 36.15608 | 10.48597 | 22908 ft | 430 kts | 178° |
| 2026-05-08 00:07 | 36.12648 | 10.49150 | 22912 ft | 430 kts | 178° |
| 2026-05-08 00:07 | 36.09686 | 10.49702 | 22912 ft | 430 kts | 178° |
| 2026-05-08 00:08 | 36.06729 | 10.50260 | 22916 ft | 430 kts | 178° |
| 2026-05-08 00:08 | 36.03769 | 10.50815 | 22875 ft | 430 kts | 178° |
| 2026-05-08 00:08 | 36.01132 | 10.51304 | 22906 ft | 431 kts | 178° |
| 2026-05-08 00:08 | 35.98164 | 10.51851 | 22915 ft | 431 kts | 178° |
| 2026-05-08 00:09 | 35.95194 | 10.52400 | 22915 ft | 432 kts | 178° |
| 2026-05-08 00:09 | 35.92224 | 10.52949 | 22913 ft | 432 kts | 178° |
| 2026-05-08 00:09 | 35.89248 | 10.53499 | 22921 ft | 432 kts | 178° |
| 2026-05-08 00:09 | 35.86277 | 10.54050 | 22922 ft | 432 kts | 178° |
| 2026-05-08 00:10 | 35.83305 | 10.54601 | 22916 ft | 432 kts | 178° |
| 2026-05-08 00:10 | 35.80329 | 10.55151 | 22919 ft | 432 kts | 178° |
| 2026-05-08 00:10 | 35.77358 | 10.55700 | 22904 ft | 432 kts | 178° |
| 2026-05-08 00:10 | 35.74381 | 10.56250 | 22909 ft | 432 kts | 178° |
| 2026-05-08 00:11 | 35.71406 | 10.56799 | 22916 ft | 432 kts | 178° |
| 2026-05-08 00:11 | 35.68432 | 10.57347 | 22908 ft | 432 kts | 178° |
| 2026-05-08 00:11 | 35.65466 | 10.57895 | 22925 ft | 430 kts | 178° |
| 2026-05-08 00:11 | 35.62511 | 10.58442 | 22911 ft | 429 kts | 178° |
| 2026-05-08 00:12 | 35.59561 | 10.58985 | 22924 ft | 428 kts | 179° |
| 2026-05-08 00:12 | 35.56653 | 10.59519 | 22925 ft | 428 kts | 179° |
| 2026-05-08 00:12 | 35.53666 | 10.60067 | 22920 ft | 428 kts | 179° |
| 2026-05-08 00:12 | 35.50755 | 10.60600 | 22918 ft | 429 kts | 179° |
| 2026-05-08 00:13 | 35.47769 | 10.61147 | 22923 ft | 428 kts | 179° |
| 2026-05-08 00:13 | 35.44859 | 10.61680 | 22922 ft | 429 kts | 179° |
| 2026-05-08 00:13 | 35.41870 | 10.62228 | 22934 ft | 429 kts | 179° |
| 2026-05-08 00:13 | 35.38955 | 10.62762 | 22928 ft | 429 kts | 179° |
| 2026-05-08 00:14 | 35.36004 | 10.63302 | 22932 ft | 429 kts | 178° |
| 2026-05-08 00:14 | 35.33053 | 10.63841 | 22926 ft | 429 kts | 179° |
| 2026-05-08 00:14 | 35.30100 | 10.64381 | 22941 ft | 429 kts | 179° |
| 2026-05-08 00:14 | 35.27148 | 10.64920 | 22922 ft | 429 kts | 179° |
| 2026-05-08 00:15 | 35.24198 | 10.65458 | 22928 ft | 428 kts | 179° |
| 2026-05-08 00:15 | 35.21254 | 10.65995 | 22928 ft | 428 kts | 179° |
| 2026-05-08 00:15 | 35.18325 | 10.66531 | 22709 ft | 421 kts | 179° |
| 2026-05-08 00:15 | 35.15475 | 10.67059 | 22450 ft | 408 kts | 179° |
| 2026-05-08 00:16 | 35.12696 | 10.67573 | 22159 ft | 401 kts | 179° |
| 2026-05-08 00:16 | 35.09947 | 10.68074 | 21563 ft | 398 kts | 179° |
| 2026-05-08 00:16 | 35.07210 | 10.68568 | 20944 ft | 396 kts | 179° |
| 2026-05-08 00:16 | 35.04498 | 10.69056 | 20377 ft | 393 kts | 179° |
| 2026-05-08 00:17 | 35.01802 | 10.69542 | 19808 ft | 390 kts | 179° |
| 2026-05-08 00:17 | 34.99134 | 10.70024 | 19287 ft | 386 kts | 179° |
| 2026-05-08 00:17 | 34.96494 | 10.70301 | 18760 ft | 376 kts | 186° |
| 2026-05-08 00:17 | 34.93890 | 10.70294 | 18226 ft | 372 kts | 188° |
| 2026-05-08 00:18 | 34.91316 | 10.70201 | 17619 ft | 369 kts | 189° |
| 2026-05-08 00:18 | 34.88765 | 10.70056 | 17029 ft | 365 kts | 190° |
| 2026-05-08 00:18 | 34.86238 | 10.69883 | 16460 ft | 362 kts | 190° |
| 2026-05-08 00:18 | 34.83731 | 10.69704 | 15910 ft | 359 kts | 190° |
| 2026-05-08 00:19 | 34.81249 | 10.69529 | 15368 ft | 356 kts | 190° |
| 2026-05-08 00:19 | 34.78780 | 10.69360 | 14831 ft | 354 kts | 190° |
| 2026-05-08 00:19 | 34.76331 | 10.69197 | 14309 ft | 351 kts | 190° |
| 2026-05-08 00:19 | 34.73904 | 10.69041 | 13820 ft | 348 kts | 189° |
| 2026-05-08 00:20 | 34.71483 | 10.69017 | 13264 ft | 349 kts | 185° |
| 2026-05-08 00:20 | 34.69060 | 10.69175 | 12699 ft | 348 kts | 183° |
| 2026-05-08 00:20 | 34.66651 | 10.69373 | 12159 ft | 346 kts | 182° |
| 2026-05-08 00:20 | 34.64258 | 10.69583 | 11615 ft | 344 kts | 182° |
| 2026-05-08 00:21 | 34.61881 | 10.69797 | 11140 ft | 341 kts | 182° |
| 2026-05-08 00:21 | 34.59562 | 10.70008 | 10752 ft | 335 kts | 182° |
| 2026-05-08 00:21 | 34.57258 | 10.70221 | 10435 ft | 327 kts | 182° |
| 2026-05-08 00:21 | 34.55029 | 10.70429 | 10246 ft | 316 kts | 182° |
| 2026-05-08 00:22 | 34.52871 | 10.70630 | 10047 ft | 309 kts | 182° |
| 2026-05-08 00:22 | 34.50641 | 10.70822 | 9949 ft | 332 kts | 181° |
| 2026-05-08 00:22 | 34.48313 | 10.71028 | 9857 ft | 333 kts | 181° |
| 2026-05-08 00:22 | 34.46052 | 10.71242 | 9684 ft | 319 kts | 181° |
| 2026-05-08 00:23 | 34.43879 | 10.71449 | 9489 ft | 307 kts | 181° |
| 2026-05-08 00:23 | 34.41784 | 10.71646 | 9305 ft | 296 kts | 182° |
| 2026-05-08 00:23 | 34.39762 | 10.71833 | 9136 ft | 286 kts | 182° |
| 2026-05-08 00:23 | 34.37850 | 10.72013 | 8974 ft | 265 kts | 182° |
| 2026-05-08 00:24 | 34.35970 | 10.72180 | 8914 ft | 275 kts | 182° |
| 2026-05-08 00:24 | 34.34060 | 10.72348 | 8858 ft | 274 kts | 182° |
| 2026-05-08 00:24 | 34.32166 | 10.72519 | 8762 ft | 274 kts | 182° |
| 2026-05-08 00:24 | 34.30265 | 10.72692 | 8662 ft | 272 kts | 182° |
| 2026-05-08 00:25 | 34.28375 | 10.72866 | 8490 ft | 272 kts | 182° |
| 2026-05-08 00:25 | 34.26496 | 10.73063 | 8161 ft | 271 kts | 181° |
| 2026-05-08 00:25 | 34.24620 | 10.73266 | 7788 ft | 270 kts | 182° |
| 2026-05-08 00:25 | 34.22750 | 10.73467 | 7459 ft | 269 kts | 182° |
| 2026-05-08 00:26 | 34.20890 | 10.73666 | 7143 ft | 267 kts | 182° |
| 2026-05-08 00:26 | 34.19054 | 10.73863 | 6900 ft | 264 kts | 182° |
| 2026-05-08 00:26 | 34.17216 | 10.74057 | 6698 ft | 266 kts | 182° |
| 2026-05-08 00:26 | 34.15381 | 10.74251 | 6485 ft | 262 kts | 182° |
| 2026-05-08 00:27 | 34.13563 | 10.74443 | 6263 ft | 263 kts | 182° |
| 2026-05-08 00:27 | 34.11742 | 10.74635 | 6091 ft | 262 kts | 182° |
| 2026-05-08 00:27 | 34.09929 | 10.74824 | 5856 ft | 261 kts | 182° |
| 2026-05-08 00:27 | 34.08141 | 10.74728 | 5632 ft | 254 kts | 198° |
| 2026-05-08 00:28 | 34.06580 | 10.73869 | 5395 ft | 242 kts | 221° |
| 2026-05-08 00:28 | 34.05504 | 10.72364 | 5148 ft | 238 kts | 242° |
| 2026-05-08 00:28 | 34.04989 | 10.70461 | 4958 ft | 240 kts | 255° |
| 2026-05-08 00:28 | 34.04532 | 10.68540 | 4860 ft | 236 kts | 249° |
| 2026-05-08 00:29 | 34.03872 | 10.66731 | 4751 ft | 233 kts | 243° |
| 2026-05-08 00:29 | 34.03086 | 10.65075 | 4643 ft | 223 kts | 238° |
| 2026-05-08 00:29 | 34.02213 | 10.63576 | 4503 ft | 215 kts | 234° |
| 2026-05-08 00:29 | 34.01270 | 10.62220 | 4399 ft | 207 kts | 230° |
| 2026-05-08 00:30 | 34.00277 | 10.61006 | 4305 ft | 200 kts | 227° |
| 2026-05-08 00:30 | 33.99244 | 10.59922 | 4175 ft | 194 kts | 223° |
| 2026-05-08 00:30 | 33.98165 | 10.58947 | 3963 ft | 194 kts | 219° |
| 2026-05-08 00:30 | 33.97033 | 10.58076 | 3768 ft | 192 kts | 216° |
| 2026-05-08 00:31 | 33.95856 | 10.57308 | 3533 ft | 193 kts | 211° |
| 2026-05-08 00:31 | 33.94623 | 10.56641 | 3294 ft | 195 kts | 207° |
| 2026-05-08 00:31 | 33.93309 | 10.56191 | 3047 ft | 198 kts | 197° |
| 2026-05-08 00:31 | 33.91962 | 10.55920 | 2712 ft | 195 kts | 194° |
| 2026-05-08 00:32 | 33.90619 | 10.55719 | 2512 ft | 191 kts | 190° |
| 2026-05-08 00:32 | 33.89352 | 10.55863 | 2474 ft | 177 kts | 172° |
| 2026-05-08 00:32 | 33.88300 | 10.56500 | 2468 ft | 166 kts | 151° |
| 2026-05-08 00:32 | 33.87522 | 10.57548 | 2469 ft | 173 kts | 126° |
| 2026-05-08 00:33 | 33.87129 | 10.58923 | 2497 ft | 180 kts | 105° |
| 2026-05-08 00:33 | 33.87095 | 10.60461 | 2477 ft | 183 kts | 91° |
| 2026-05-08 00:33 | 33.87162 | 10.61982 | 2281 ft | 181 kts | 92° |
| 2026-05-08 00:33 | 33.87195 | 10.63495 | 2034 ft | 181 kts | 92° |
| 2026-05-08 00:34 | 33.87228 | 10.64996 | 1793 ft | 177 kts | 93° |
| 2026-05-08 00:34 | 33.87265 | 10.66428 | 1579 ft | 165 kts | 94° |
| 2026-05-08 00:34 | 33.87299 | 10.67768 | 1351 ft | 155 kts | 95° |
| 2026-05-08 00:34 | 33.87329 | 10.69021 | 1152 ft | 146 kts | 92° |
| 2026-05-08 00:35 | 33.87359 | 10.70233 | 985 ft | 144 kts | 95° |
| 2026-05-08 00:35 | 33.87388 | 10.71410 | 805 ft | 137 kts | 94° |
| 2026-05-08 00:35 | 33.87415 | 10.72504 | 634 ft | 127 kts | 93° |
| 2026-05-08 00:35 | 33.87440 | 10.73555 | 458 ft | 123 kts | 92° |
| 2026-05-08 00:36 | 33.87473 | 10.74571 | 292 ft | 124 kts | 95° |
| 2026-05-08 00:36 | 33.87493 | 10.75620 | 135 ft | 123 kts | 93° |
| 2026-05-08 00:36 | 33.87515 | 10.76627 | 28 ft | 116 kts | 90° |
| 2026-05-08 00:36 | 33.87532 | 10.77291 | 26 ft | 47 kts | 87° |
| 2026-05-08 00:37 | 33.87540 | 10.77592 | 27 ft | 25 kts | 88° |
| 2026-05-08 00:37 | 33.87478 | 10.77717 | 30 ft | 15 kts | 166° |
| 2026-05-08 00:37 | 33.87456 | 10.77721 | 27 ft | 0 kts | 175° |
| 2026-05-08 00:38 | 33.87455 | 10.77721 | 27 ft | 0 kts | 175° |
| 2026-05-08 00:38 | 33.87449 | 10.77721 | 28 ft | 0 kts | 178° |
| 2026-05-08 00:40 | 33.87423 | 10.77721 | 29 ft | 16 kts | 182° |
| 2026-05-08 00:40 | 33.87379 | 10.77677 | 30 ft | 8 kts | 270° |
| 2026-05-08 00:40 | 33.87383 | 10.77566 | 30 ft | 5 kts | 267° |
| 2026-05-08 00:40 | 33.87380 | 10.77455 | 30 ft | 23 kts | 266° |
| 2026-05-08 00:41 | 33.87372 | 10.77379 | 30 ft | 0 kts | 243° |